Terminal Aerodrome Forecast
Issued by NWS Houston/Galveston, TX

Home | Current Version | Previous Version | Text Only | Print | Product List | Glossary On
Versions: 1 2 3 4 5 6 7 8 9 10 11 12 13 14 15 16 17 18 19 20 21 22 23 24 25 26 27 28 29 30 31 32 33 34 35 36 37 38 39 40 41 42 43
000
FTUS44 KHGX 281731
TAFCLL
TAF
KCLL 281731Z 2818/2918 18010KT P6SM BKN026
     FM281900 18006KT P6SM FEW035
     FM290100 VRB03KT P6SM SCT015
     FM290500 15003KT 5SM BR SCT007 OVC012
      TEMPO 2909/2912 2SM BR OVC007
     FM291500 13004KT P6SM BKN025=

USA.gov is the U.S. government's official web portal to all federal, state and local government web resources and services.